Time;durP1;ratioP1;P1;durP2;ratioP2;P2;SDS_P1;SDS_P2;PMS_P1;PMS_P2;Temp;Humidity;BMP_temperature;BMP_pressure;BME280_temperature;BME280_humidity;BME280_pressure;Samples;Min_cycle;Max_cycle;Signal;HPM_P1;HPM_P2
2022/02/08 00:01:02;;;;;;;25.25;16.30;;;;;;;2.56;94.06;98668.19;1725837;81;20990;-81
2022/02/08 00:03:29;;;;;;;27.45;18.37;;;;;;;2.52;94.18;98666.51;1747722;81;21038;-83
2022/02/08 00:06:14;;;;;;;23.05;16.50;;;;;;;2.49;94.66;98680.23;1742046;80;21010;-80
2022/02/08 00:08:30;;;;;;;21.00;14.28;;;;;;;2.48;94.99;98677.80;1736716;81;21106;-77
2022/02/08 00:10:57;;;;;;;19.67;15.28;;;;;;;2.43;95.66;98679.79;1753466;80;21006;-85
2022/02/08 00:13:23;;;;;;;18.45;13.93;;;;;;;2.40;95.78;98678.89;1793201;79;21571;-84
2022/02/08 00:15:49;;;;;;;20.88;15.50;;;;;;;2.35;96.37;98676.09;1739447;81;21035;-85
2022/02/08 00:18:16;;;;;;;18.48;13.00;;;;;;;2.29;96.75;98678.83;1753142;81;21492;-87
2022/02/08 00:20:42;;;;;;;17.42;14.00;;;;;;;2.25;96.98;98683.78;1738886;81;21139;-81
2022/02/08 00:23:09;;;;;;;13.75;12.30;;;;;;;2.22;97.56;98686.04;1758923;81;20920;-85
2022/02/08 00:25:35;;;;;;;16.30;11.57;;;;;;;2.25;97.62;98689.59;1759028;81;20960;-74
2022/02/08 00:28:02;;;;;;;16.57;11.08;;;;;;;2.29;97.68;98696.89;1738851;81;20984;-73
2022/02/08 00:30:29;;;;;;;14.75;10.48;;;;;;;2.26;97.85;98700.48;1760947;81;21043;-72
2022/02/08 00:32:55;;;;;;;13.72;10.58;;;;;;;2.21;97.92;98705.12;1760897;81;21092;-73
2022/02/08 00:35:22;;;;;;;10.53;8.58;;;;;;;2.23;97.84;98712.35;1714604;82;20928;-74
2022/02/08 00:37:48;;;;;;;13.68;9.95;;;;;;;2.17;97.88;98722.00;1730557;81;21014;-76
2022/02/08 00:40:14;;;;;;;12.75;9.55;;;;;;;2.16;97.90;98720.87;1724921;82;21094;-75
2022/02/08 00:42:41;;;;;;;10.93;8.80;;;;;;;2.13;98.07;98718.67;1730549;81;21003;-76
2022/02/08 00:48:13;;;;;;;7.40;6.53;;;;;;;2.19;98.07;98722.60;1707754;83;21002;-75
2022/02/08 00:50:29;;;;;;;7.37;6.30;;;;;;;2.20;97.99;98732.70;1730237;82;20996;-73
2022/02/08 00:52:53;;;;;;;7.42;6.42;;;;;;;2.19;97.92;98731.88;1730374;82;22295;-74
2022/02/08 00:55:19;;;;;;;7.10;5.33;;;;;;;2.19;97.87;98735.05;1708519;82;21592;-74
2022/02/08 00:57:46;;;;;;;6.58;5.40;;;;;;;2.15;97.88;98728.56;1742904;81;21110;-74
2022/02/08 01:00:16;;;;;;;5.92;5.33;;;;;;;2.13;98.06;98737.23;1751632;81;20952;-85
2022/02/08 01:02:44;;;;;;;5.70;4.70;;;;;;;2.14;98.09;98734.38;1724336;81;21054;-87
2022/02/08 01:05:14;;;;;;;5.37;4.40;;;;;;;2.14;98.16;98734.38;1725366;83;21011;-89
2022/02/08 01:07:42;;;;;;;5.53;5.03;;;;;;;2.16;98.16;98730.97;1708306;82;20991;-83
2022/02/08 01:10:10;;;;;;;5.65;5.15;;;;;;;2.21;98.23;98742.80;1715028;80;21071;-86
2022/02/08 01:12:43;;;;;;;6.20;5.22;;;;;;;2.22;98.11;98741.73;1792333;79;20900;-86
2022/02/08 01:15:09;;;;;;;6.95;5.25;;;;;;;2.18;97.95;98738.21;1800326;79;21014;-84
2022/02/08 01:17:36;;;;;;;5.10;4.25;;;;;;;2.18;97.92;98748.00;1761872;80;20973;-82
2022/02/08 01:20:12;;;;;;;6.97;6.15;;;;;;;2.18;98.01;98759.42;1738163;82;21545;-87
2022/02/08 01:22:38;;;;;;;11.97;8.60;;;;;;;2.16;98.09;98756.69;1710651;81;21548;-92
2022/02/08 01:25:06;;;;;;;8.18;6.90;;;;;;;2.13;98.25;98753.16;1715000;82;21473;-82
2022/02/08 01:27:44;;;;;;;5.72;4.22;;;;;;;2.13;98.30;98763.77;1739901;81;20955;-86
2022/02/08 01:30:25;;;;;;;5.67;4.58;;;;;;;2.09;98.29;98759.92;1818465;78;20994;-80
2022/02/08 01:33:14;;;;;;;7.45;5.33;;;;;;;2.07;98.27;98769.41;1795721;78;21028;-81
2022/02/08 01:35:33;;;;;;;6.00;5.03;;;;;;;2.05;98.24;98773.33;1814057;77;21112;-82
2022/02/08 01:38:06;;;;;;;5.12;4.65;;;;;;;2.09;98.35;98770.53;1792562;78;21029;-82
2022/02/08 01:48:27;;;;;;;4.47;4.08;;;;;;;2.17;97.55;98796.77;1764333;80;21054;-80
2022/02/08 01:50:42;;;;;;;3.50;3.20;;;;;;;2.17;97.47;98792.28;1787479;78;21291;-78
2022/02/08 01:53:10;;;;;;;4.83;3.65;;;;;;;2.18;97.37;98799.22;1793411;78;20993;-75
2022/02/08 01:55:38;;;;;;;6.42;5.83;;;;;;;2.18;97.21;98815.12;1768411;78;21069;-85
2022/02/08 01:58:04;;;;;;;6.50;4.05;;;;;;;2.18;97.10;98804.52;1800687;78;21028;-80
2022/02/08 02:00:31;;;;;;;5.22;4.72;;;;;;;2.21;97.03;98802.47;1764953;80;21179;-82
2022/02/08 02:02:58;;;;;;;4.17;3.60;;;;;;;2.21;96.79;98799.82;1756080;81;20992;-86
2022/02/08 02:05:26;;;;;;;4.80;4.30;;;;;;;2.18;96.58;98795.23;1767868;80;20905;-89
2022/02/08 02:07:53;;;;;;;5.37;4.20;;;;;;;2.17;96.34;98802.08;1767444;80;20944;-80
2022/02/08 02:10:22;;;;;;;5.58;4.30;;;;;;;2.15;96.32;98809.45;1780304;79;20923;-77
2022/02/08 02:12:57;;;;;;;5.50;4.65;;;;;;;2.15;96.17;98819.55;1773912;79;21143;-79
2022/02/08 02:15:26;;;;;;;4.62;4.22;;;;;;;2.16;96.01;98819.83;1773189;79;20966;-81
2022/02/08 02:17:55;;;;;;;3.45;3.15;;;;;;;2.16;95.80;98822.48;1739890;82;21002;-79
2022/02/08 02:20:23;;;;;;;4.37;3.05;;;;;;;2.13;95.43;98824.76;1741941;81;21073;-78
2022/02/08 02:22:51;;;;;;;3.00;2.80;;;;;;;2.10;95.16;98823.37;1740617;82;20962;-81
2022/02/08 02:25:26;;;;;;;2.90;2.60;;;;;;;2.06;95.01;98826.13;1740369;82;21128;-80
2022/02/08 02:27:55;;;;;;;2.72;2.50;;;;;;;2.04;94.85;98828.71;1711673;82;21065;-79
2022/02/08 02:30:23;;;;;;;2.83;2.60;;;;;;;2.00;94.49;98829.66;1743035;81;21337;-75
2022/02/08 02:32:51;;;;;;;2.70;2.50;;;;;;;1.97;94.27;98839.36;1744750;81;21034;-82
2022/02/08 02:35:17;;;;;;;2.30;1.95;;;;;;;1.96;94.12;98844.89;1771351;81;21548;-78
2022/02/08 02:37:44;;;;;;;2.77;2.58;;;;;;;1.92;94.02;98847.14;1771133;79;22043;-81
2022/02/08 02:40:13;;;;;;;2.35;2.15;;;;;;;1.92;93.92;98844.48;1756490;81;20987;-78
2022/02/08 02:42:39;;;;;;;4.33;2.20;;;;;;;1.88;93.43;98844.63;1741206;81;20990;-81
2022/02/08 02:45:09;;;;;;;2.58;2.37;;;;;;;1.90;93.40;98847.08;1769657;80;20986;-77
2022/02/08 02:47:36;;;;;;;3.45;2.30;;;;;;;1.90;93.23;98853.70;1718237;81;21012;-77
2022/02/08 02:50:08;;;;;;;2.75;2.47;;;;;;;1.92;92.99;98860.94;1781794;79;22151;-77
2022/02/08 02:52:34;;;;;;;4.22;2.42;;;;;;;1.92;92.80;98858.29;1730235;80;21058;-78
2022/02/08 02:55:02;;;;;;;3.22;2.40;;;;;;;1.90;92.59;98865.12;1742020;79;21042;-77
2022/02/08 02:57:29;;;;;;;3.65;2.10;;;;;;;1.87;92.36;98867.39;1690117;82;20998;-73
2022/02/08 03:00:06;;;;;;;3.87;2.33;;;;;;;1.86;92.36;98876.37;1737405;81;21583;-78
2022/02/08 03:02:36;;;;;;;2.00;1.75;;;;;;;1.86;92.23;98876.37;1740022;79;21204;-76
2022/02/08 03:05:11;;;;;;;3.12;2.20;;;;;;;1.88;92.12;98874.30;1739018;82;20983;-76
2022/02/08 03:20:41;;;;;;;2.22;2.10;;;;;;;1.86;91.13;98904.20;1777053;78;21150;-77
2022/02/08 03:23:09;;;;;;;2.55;2.35;;;;;;;1.86;91.17;98910.32;1787046;78;20968;-77
2022/02/08 03:25:36;;;;;;;5.72;2.40;;;;;;;1.89;91.09;98917.84;1765023;80;21014;-77
2022/02/08 03:28:04;;;;;;;5.15;3.47;;;;;;;1.88;90.88;98927.32;1786693;80;21113;-75
2022/02/08 03:30:31;;;;;;;5.80;4.03;;;;;;;1.85;90.74;98929.08;1787712;78;20972;-77
2022/02/08 03:32:57;;;;;;;4.45;3.58;;;;;;;1.83;90.74;98925.81;1789911;78;21536;-78
2022/02/08 03:35:26;;;;;;;4.25;3.30;;;;;;;1.80;90.57;98936.34;1785258;78;20999;-79
2022/02/08 03:38:01;;;;;;;5.72;2.55;;;;;;;1.79;90.56;98938.69;1767972;78;21083;-76
2022/02/08 03:40:39;;;;;;;3.95;3.42;;;;;;;1.79;90.48;98948.48;1775779;80;21067;-75
2022/02/08 03:43:13;;;;;;;4.62;3.25;;;;;;;1.80;90.46;98940.83;1782164;78;20909;-74
2022/02/08 03:45:30;;;;;;;5.67;3.50;;;;;;;1.74;90.30;98946.46;1787322;79;21074;-76
2022/02/08 03:47:57;;;;;;;5.28;3.70;;;;;;;1.74;90.39;98941.97;1789359;80;21015;-79
2022/02/08 03:50:24;;;;;;;3.33;3.02;;;;;;;1.75;90.44;98946.77;1741569;81;21512;-77
2022/02/08 03:52:51;;;;;;;4.17;3.60;;;;;;;1.76;90.33;98960.33;1783274;80;21562;-79
2022/02/08 03:55:19;;;;;;;3.95;3.40;;;;;;;1.74;90.16;98957.06;1789068;80;21012;-78
2022/02/08 03:57:46;;;;;;;4.40;3.75;;;;;;;1.75;90.17;98963.48;1788180;80;21598;-74
2022/02/08 04:00:13;;;;;;;3.95;3.55;;;;;;;1.72;90.04;98975.84;1759512;80;20975;-79
2022/02/08 04:02:52;;;;;;;5.65;3.92;;;;;;;1.71;90.03;98975.54;1764692;80;21004;-74
2022/02/08 04:05:28;;;;;;;4.08;3.27;;;;;;;1.72;90.02;98974.52;1763670;80;22239;-76
2022/02/08 04:08:01;;;;;;;3.95;3.17;;;;;;;1.75;90.08;98978.58;1786142;80;20901;-77
2022/02/08 04:10:27;;;;;;;6.12;3.75;;;;;;;1.76;89.90;98973.58;1759938;80;21457;-74
2022/02/08 04:32:11;;;;;;;4.20;3.22;;;;;;;1.80;89.27;99019.03;1757979;81;21475;-82
2022/02/08 04:37:04;;;;;;;4.90;3.47;;;;;;;1.78;89.31;99037.78;1757701;80;20983;-81
2022/02/08 04:44:31;;;;;;;4.10;3.70;;;;;;;1.77;89.18;99049.94;1766106;80;21516;-84
2022/02/08 04:49:26;;;;;;;3.72;3.00;;;;;;;1.69;89.33;99057.09;1763936;80;21035;-82
2022/02/08 04:52:02;;;;;;;3.62;2.67;;;;;;;1.69;89.56;99057.59;1757939;80;21021;-84
2022/02/08 04:54:30;;;;;;;3.42;2.27;;;;;;;1.72;89.60;99057.20;1757530;81;21679;-82
2022/02/08 05:00:03;;;;;;;3.37;2.75;;;;;;;1.75;89.39;99076.14;1753613;80;20913;-75
2022/02/08 05:35:23;;;;;;;3.10;2.47;;;;;;;1.67;89.54;99120.61;1736128;81;21025;-79
2022/02/08 05:43:13;;;;;;;3.67;2.80;;;;;;;1.67;89.71;99144.47;1789292;80;20977;-79
2022/02/08 05:45:34;;;;;;;5.03;3.55;;;;;;;1.67;89.68;99149.77;1787138;80;21469;-81
2022/02/08 05:48:01;;;;;;;4.05;2.77;;;;;;;1.65;89.70;99145.98;1765960;80;21053;-79
2022/02/08 05:55:28;;;;;;;3.60;2.65;;;;;;;1.75;89.79;99165.45;1757792;81;20976;-82
2022/02/08 05:57:54;;;;;;;3.37;3.08;;;;;;;1.72;89.63;99162.72;1761029;80;21527;-81
2022/02/08 06:00:27;;;;;;;5.75;2.62;;;;;;;1.72;89.61;99183.10;1779902;80;21437;-80
2022/02/08 06:02:59;;;;;;;2.65;2.45;;;;;;;1.71;89.58;99177.48;1788655;80;21184;-79
2022/02/08 06:05:28;;;;;;;4.07;2.67;;;;;;;1.67;89.55;99181.06;1765903;80;20996;-80
2022/02/08 06:07:54;;;;;;;3.37;2.92;;;;;;;1.66;89.58;99179.43;1762986;80;20941;-78
2022/02/08 06:10:21;;;;;;;3.17;2.87;;;;;;;1.67;89.71;99185.04;1786550;80;20968;-81
2022/02/08 06:12:52;;;;;;;3.20;2.55;;;;;;;1.67;89.66;99183.72;1770909;80;21547;-81
2022/02/08 06:15:23;;;;;;;3.50;3.20;;;;;;;1.68;89.62;99181.85;1757704;80;21072;-90
2022/02/08 06:20:47;;;;;;;8.43;3.92;;;;;;;1.69;89.60;99192.77;1765133;80;21073;-86
2022/02/08 06:23:14;;;;;;;7.47;3.80;;;;;;;1.70;89.58;99192.57;1771419;79;21523;-87
2022/02/08 06:25:58;;;;;;;7.30;4.42;;;;;;;1.73;89.53;99197.45;1794997;79;20986;-86
2022/02/08 06:28:34;;;;;;;9.30;4.87;;;;;;;1.72;89.38;99197.68;1813975;77;21590;-81
2022/02/08 06:31:06;;;;;;;7.22;3.90;;;;;;;1.70;89.31;99201.84;1813304;77;21135;-81
2022/02/08 06:33:39;;;;;;;8.13;4.40;;;;;;;1.72;89.35;99203.80;1813270;78;21001;-82
2022/02/08 06:36:07;;;;;;;12.33;7.53;;;;;;;1.74;89.41;99206.22;1781562;79;21618;-85
2022/02/08 06:38:36;;;;;;;13.30;7.37;;;;;;;1.79;89.33;99205.61;1784599;79;21042;-86
2022/02/08 06:41:07;;;;;;;9.70;6.30;;;;;;;1.79;89.08;99202.95;1812942;78;21042;-85
2022/02/08 06:43:33;;;;;;;6.65;4.22;;;;;;;1.76;88.83;99212.15;1795731;78;20993;-79
2022/02/08 06:46:00;;;;;;;14.18;6.40;;;;;;;1.74;88.83;99210.20;1759568;80;21515;-91
2022/02/08 06:48:27;;;;;;;12.88;7.45;;;;;;;1.74;88.85;99214.99;1738417;82;21062;-90
2022/02/08 06:50:53;;;;;;;9.45;7.15;;;;;;;1.72;88.73;99221.53;1740382;81;20994;-86
2022/02/08 06:53:20;;;;;;;12.75;6.62;;;;;;;1.74;88.81;99232.23;1738031;82;22039;-90
2022/02/08 06:55:50;;;;;;;7.08;5.62;;;;;;;1.77;88.72;99228.88;1738901;81;21020;-89
2022/02/08 06:58:16;;;;;;;6.25;4.45;;;;;;;1.77;88.60;99236.83;1781698;80;21003;-88
2022/02/08 07:00:45;;;;;;;7.15;3.30;;;;;;;1.77;88.59;99240.30;1781354;80;21030;-88
2022/02/08 07:03:15;;;;;;;4.83;2.90;;;;;;;1.79;88.55;99242.72;1781361;79;21562;-87
2022/02/08 07:05:42;;;;;;;5.58;3.47;;;;;;;1.83;88.52;99263.82;1799576;79;21241;-89
2022/02/08 07:08:10;;;;;;;4.53;3.58;;;;;;;1.86;88.27;99265.58;1756006;81;21437;-77
2022/02/08 07:10:38;;;;;;;9.65;5.35;;;;;;;1.84;88.03;99261.48;1755265;81;20975;-79
2022/02/08 07:13:08;;;;;;;7.87;5.53;;;;;;;1.84;87.97;99261.48;1734962;81;20931;-79
2022/02/08 07:15:34;;;;;;;10.28;3.90;;;;;;;1.82;87.84;99261.70;1755928;81;21774;-79
2022/02/08 07:18:02;;;;;;;5.20;4.55;;;;;;;1.85;87.82;99262.61;1756127;81;21528;-84
2022/02/08 07:20:31;;;;;;;9.98;3.90;;;;;;;1.88;87.73;99271.98;1726137;83;21475;-84
2022/02/08 07:22:58;;;;;;;6.00;4.20;;;;;;;1.85;87.49;99274.55;1731194;82;21037;-84
2022/02/08 07:25:24;;;;;;;3.33;3.00;;;;;;;1.85;87.49;99269.24;1784457;79;21085;-82
2022/02/08 07:27:50;;;;;;;8.98;3.92;;;;;;;1.89;87.49;99270.97;1736492;81;21066;-83
2022/02/08 07:30:17;;;;;;;9.25;5.90;;;;;;;1.92;87.19;99279.86;1737664;82;21338;-78
2022/02/08 07:32:45;;;;;;;7.05;4.95;;;;;;;1.94;87.14;99281.27;1743903;81;21549;-77
2022/02/08 07:35:23;;;;;;;12.20;8.18;;;;;;;1.95;87.01;99280.26;1790151;79;20982;-75
2022/02/08 07:40:42;;;;;;;13.05;8.15;;;;;;;2.00;86.76;99296.38;1738382;82;21496;-87
2022/02/08 07:42:56;;;;;;;9.68;5.37;;;;;;;2.03;86.84;99313.70;1739306;82;21817;-85
2022/02/08 07:45:24;;;;;;;9.58;4.50;;;;;;;2.05;86.48;99308.52;1728014;81;20962;-81
2022/02/08 07:47:55;;;;;;;9.88;6.62;;;;;;;2.07;86.17;99314.41;1738110;82;21023;-82
2022/02/08 07:50:24;;;;;;;7.97;4.78;;;;;;;2.07;85.84;99311.77;1763200;81;21538;-82
2022/02/08 07:52:53;;;;;;;10.98;3.72;;;;;;;2.08;85.62;99332.47;1781014;79;21038;-87
2022/02/08 07:55:20;;;;;;;6.33;4.33;;;;;;;2.08;85.34;99316.56;1805543;79;21508;-87
2022/02/08 07:57:49;;;;;;;7.75;5.10;;;;;;;2.08;85.18;99333.80;1811787;78;20986;-83
2022/02/08 08:00:16;;;;;;;7.10;4.30;;;;;;;2.10;84.87;99329.94;1761989;80;21558;-86
2022/02/08 08:02:44;;;;;;;4.20;3.50;;;;;;;2.11;84.53;99338.72;1762506;80;21068;-84
2022/02/08 08:05:10;;;;;;;5.40;3.90;;;;;;;2.12;84.44;99342.47;1782679;80;21527;-85
2022/02/08 08:07:38;;;;;;;3.08;2.17;;;;;;;2.15;84.48;99350.55;1805917;79;20995;-85
2022/02/08 08:10:08;;;;;;;7.95;4.25;;;;;;;2.17;83.99;99355.94;1786159;79;20935;-86
2022/02/08 08:12:37;;;;;;;7.90;5.22;;;;;;;2.16;83.34;99362.77;1772270;80;21014;-79
2022/02/08 08:15:22;;;;;;;6.40;3.05;;;;;;;2.17;83.38;99367.06;1743162;81;21023;-79
2022/02/08 08:17:58;;;;;;;6.25;3.33;;;;;;;2.17;82.54;99378.48;1768744;80;21452;-82
2022/02/08 08:20:21;;;;;;;9.63;3.92;;;;;;;2.17;82.12;99386.45;1750873;79;21589;-88
2022/02/08 08:22:49;;;;;;;7.22;4.97;;;;;;;2.13;81.49;99394.51;1771576;81;20939;-84
2022/02/08 08:25:17;;;;;;;7.03;4.67;;;;;;;2.11;81.67;99397.86;1771411;81;21503;-88
2022/02/08 08:27:43;;;;;;;9.58;5.78;;;;;;;2.14;81.66;99394.00;1772182;81;20943;-87
2022/02/08 08:30:10;;;;;;;4.00;3.17;;;;;;;2.15;81.13;99393.81;1714342;82;20978;-83
2022/02/08 08:32:39;;;;;;;7.28;3.20;;;;;;;2.16;81.03;99411.33;1740184;81;21115;-87
2022/02/08 08:35:09;;;;;;;9.05;3.45;;;;;;;2.17;80.66;99402.87;1740891;81;21006;-85
2022/02/08 08:37:42;;;;;;;9.55;3.75;;;;;;;2.19;80.42;99406.97;1717801;81;21086;-87
2022/02/08 08:40:19;;;;;;;5.40;3.77;;;;;;;2.23;80.12;99417.16;1740738;82;20982;-85
2022/02/08 08:42:48;;;;;;;5.40;3.52;;;;;;;2.23;79.89;99410.53;1714123;82;21026;-83
2022/02/08 08:51:20;;;;;;;10.85;6.03;;;;;;;2.26;78.33;99437.47;1747527;81;20943;-82
2022/02/08 08:52:55;;;;;;;14.85;7.62;;;;;;;2.25;77.39;99434.53;1737056;81;21111;-81
2022/02/08 08:55:23;;;;;;;8.63;4.53;;;;;;;2.28;77.28;99429.31;1771785;81;20980;-82
2022/02/08 08:57:49;;;;;;;6.78;4.97;;;;;;;2.29;77.10;99419.83;1756582;80;22565;-84
2022/02/08 09:00:19;;;;;;;6.78;4.42;;;;;;;2.27;76.44;99417.88;1736611;82;20911;-78
2022/02/08 09:02:48;;;;;;;6.53;5.33;;;;;;;2.30;76.46;99433.41;1717205;82;20930;-77
2022/02/08 09:05:16;;;;;;;6.17;3.90;;;;;;;2.35;76.49;99426.96;1741033;81;21504;-86
2022/02/08 09:07:43;;;;;;;3.27;2.60;;;;;;;2.39;75.37;99441.99;1754062;81;21020;-88
2022/02/08 09:10:15;;;;;;;2.92;2.35;;;;;;;2.43;75.26;99435.25;1743070;81;20982;-80
2022/02/08 09:13:48;;;;;;;2.50;2.22;;;;;;;2.46;75.02;99444.94;1771662;79;20924;-80
2022/02/08 09:15:47;;;;;;;3.15;1.90;;;;;;;2.49;74.68;99443.23;1760044;79;21046;-79
2022/02/08 09:24:11;;;;;;;3.75;2.85;;;;;;;2.57;72.94;99443.02;1780104;79;21022;-81
2022/02/08 09:29:06;;;;;;;3.37;2.42;;;;;;;2.63;72.29;99441.39;1737919;81;21036;-79
2022/02/08 09:31:31;;;;;;;4.25;3.05;;;;;;;2.68;71.76;99446.91;1742947;79;21546;-76
2022/02/08 09:33:56;;;;;;;4.00;3.12;;;;;;;2.69;69.64;99439.72;1729806;82;21665;-83
2022/02/08 09:36:25;;;;;;;2.77;2.20;;;;;;;2.77;69.95;99446.99;1741408;81;21922;-78
2022/02/08 09:38:54;;;;;;;8.75;3.77;;;;;;;2.83;69.46;99451.46;1741990;81;20962;-78
2022/02/08 09:41:23;;;;;;;2.92;2.12;;;;;;;2.83;65.80;99471.38;1745618;81;21516;-80
2022/02/08 09:43:52;;;;;;;9.50;5.28;;;;;;;2.87;64.86;99441.27;1772011;81;20980;-79
2022/02/08 09:46:22;;;;;;;12.50;6.75;;;;;;;2.90;65.11;99442.17;1758315;81;21495;-85
2022/02/08 09:48:56;;;;;;;11.45;6.00;;;;;;;2.95;64.69;99441.86;1798848;79;20967;-88
2022/02/08 09:51:22;;;;;;;6.28;3.75;;;;;;;2.98;63.30;99451.23;1803284;78;20940;-79
2022/02/08 09:53:50;;;;;;;6.97;4.70;;;;;;;2.95;62.47;99469.75;1776644;79;20991;-79
2022/02/08 09:56:16;;;;;;;5.83;3.20;;;;;;;2.96;63.16;99442.68;1763595;79;21019;-79
2022/02/08 09:58:43;;;;;;;2.47;2.00;;;;;;;3.02;63.16;99455.14;1733911;81;21054;-79
2022/02/08 10:01:14;;;;;;;3.92;2.75;;;;;;;3.00;62.13;99442.06;1756506;81;21527;-79
2022/02/08 10:03:56;;;;;;;3.98;2.17;;;;;;;2.98;62.13;99458.70;1744424;81;20935;-80
2022/02/08 10:06:28;;;;;;;3.80;2.27;;;;;;;3.00;62.55;99450.54;1771205;81;20976;-77
2022/02/08 10:09:05;;;;;;;3.15;2.10;;;;;;;2.98;61.56;99460.03;1721135;80;20998;-78
2022/02/08 10:11:49;;;;;;;5.95;3.72;;;;;;;2.93;60.61;99451.86;1733732;81;21023;-85
2022/02/08 10:14:51;;;;;;;3.70;2.35;;;;;;;2.92;61.35;99460.05;1745490;81;21091;-84
2022/02/08 10:22:44;;;;;;;8.38;3.15;;;;;;;2.85;60.23;99465.36;1742799;81;20967;-81
2022/02/08 10:28:18;;;;;;;;;;;;;;;2.78;59.82;99457.89;1771479;81;21198;-80
2022/02/08 10:31:03;;;;;;;3.62;2.50;;;;;;;2.81;60.01;99451.38;1807443;77;20430;-78
2022/02/08 10:38:47;;;;;;;2.62;2.40;;;;;;;2.78;60.68;99464.53;1740161;81;21603;-77
2022/02/08 10:41:24;;;;;;;3.05;2.10;;;;;;;2.73;60.79;99478.14;1741719;80;21041;-78
2022/02/08 10:44:00;;;;;;;3.20;1.90;;;;;;;2.70;60.84;99460.77;1769089;81;20950;-78
2022/02/08 10:46:27;;;;;;;2.95;1.90;;;;;;;2.68;61.20;99448.73;1743971;81;21002;-83
2022/02/08 10:49:10;;;;;;;3.58;1.77;;;;;;;2.64;60.99;99457.59;1743016;81;21912;-77
2022/02/08 10:51:46;;;;;;;2.80;1.50;;;;;;;2.65;60.45;99467.20;1741227;82;21030;-79
2022/02/08 10:54:16;;;;;;;1.82;1.70;;;;;;;2.66;60.55;99439.64;1745800;81;21069;-86
2022/02/08 10:56:48;;;;;;;3.90;1.70;;;;;;;2.69;60.45;99455.66;1719093;82;21083;-89
2022/02/08 10:59:25;;;;;;;9.65;4.78;;;;;;;2.70;60.07;99445.34;1713399;82;20994;-85
2022/02/08 11:01:55;;;;;;;12.45;5.10;;;;;;;2.69;60.03;99447.18;1752338;81;21015;-80
2022/02/08 11:04:23;;;;;;;14.63;6.08;;;;;;;2.70;60.45;99441.36;1739372;82;36843;-87
2022/02/08 11:07:09;;;;;;;19.70;9.65;;;;;;;2.73;60.39;99451.09;1763224;81;21532;-87
2022/02/08 11:12:23;;;;;;;9.10;4.10;;;;;;;2.75;59.80;99446.37;1729001;81;22129;-76
2022/02/08 11:15:42;;;;;;;8.03;4.03;;;;;;;2.79;60.52;99442.28;1737015;80;21052;-82
2022/02/08 11:25:15;;;;;;;12.65;5.30;;;;;;;2.77;59.35;99456.28;1740278;80;21006;-83
2022/02/08 11:27:40;;;;;;;11.80;7.50;;;;;;;2.78;59.59;99451.26;1745564;80;20991;-84
2022/02/08 11:30:15;;;;;;;4.03;2.10;;;;;;;2.83;59.88;99462.63;1774452;79;21259;-91
2022/02/08 11:33:05;;;;;;;13.58;7.30;;;;;;;2.87;59.81;99443.41;1768964;81;21264;-79
2022/02/08 11:46:40;;;;;;;3.25;2.02;;;;;;;2.84;59.22;99456.27;1748548;80;21028;-84
2022/02/08 11:51:57;;;;;;;3.83;2.40;;;;;;;2.89;59.25;99452.48;1747325;81;20979;-83
2022/02/08 11:54:37;;;;;;;10.72;4.53;;;;;;;2.90;58.67;99454.13;1723097;81;21489;-93
2022/02/08 11:59:56;;;;;;;4.05;2.85;;;;;;;2.83;58.40;99467.39;1763811;81;21039;-72
2022/02/08 12:07:38;;;;;;;4.70;2.70;;;;;;;2.82;58.52;99472.42;1737871;81;21070;-87
2022/02/08 12:10:28;;;;;;;10.55;6.62;;;;;;;2.85;58.80;99466.69;1710858;83;21141;-79
2022/02/08 12:50:31;;;;;;;18.98;8.45;;;;;;;2.99;58.36;99503.34;1786629;80;21499;-86
2022/02/08 12:56:13;;;;;;;3.50;2.50;;;;;;;2.99;58.95;99505.50;1783644;79;20958;-85
2022/02/08 14:07:42;;;;;;;4.60;3.10;;;;;;;2.94;58.14;99529.20;1787481;78;21056;-83
2022/02/08 14:10:16;;;;;;;4.53;2.22;;;;;;;2.95;58.13;99524.70;1764804;80;21068;-80
2022/02/08 14:20:57;;;;;;;4.53;2.55;;;;;;;2.92;59.00;99546.38;1764984;80;22252;-78
2022/02/08 14:29:01;;;;;;;5.40;2.37;;;;;;;2.84;59.51;99537.27;1803520;78;21519;-85
2022/02/08 15:09:38;;;;;;;4.60;2.55;;;;;;;2.49;59.78;99551.23;1787251;78;21565;-80
2022/02/08 15:14:45;;;;;;;6.28;2.55;;;;;;;2.48;60.04;99549.59;1740180;80;21471;-81
2022/02/08 15:17:05;;;;;;;3.37;2.45;;;;;;;2.44;60.26;99552.34;1787113;78;21056;-70
2022/02/08 15:19:33;;;;;;;2.98;2.30;;;;;;;2.44;60.33;99557.64;1788005;80;20986;-76
2022/02/08 15:22:01;;;;;;;5.55;3.20;;;;;;;2.41;59.85;99557.52;1765127;80;21033;-75
2022/02/08 15:24:27;;;;;;;5.87;2.87;;;;;;;2.38;59.38;99559.26;1788382;80;21250;-77
2022/02/08 15:26:53;;;;;;;4.30;2.65;;;;;;;2.36;59.54;99571.90;1788212;80;21488;-72
2022/02/08 15:29:20;;;;;;;3.65;2.55;;;;;;;2.35;59.71;99554.33;1764142;78;20993;-77
2022/02/08 15:31:46;;;;;;;4.17;2.72;;;;;;;2.35;59.94;99564.95;1788355;80;21022;-76
2022/02/08 15:34:20;;;;;;;4.33;2.65;;;;;;;2.36;60.04;99567.92;1772982;80;20990;-89
2022/02/08 15:36:55;;;;;;;3.60;3.02;;;;;;;2.36;60.12;99557.80;1766995;81;20966;-88
2022/02/08 15:39:22;;;;;;;6.17;3.08;;;;;;;2.36;60.19;99551.17;1770541;81;21050;-85
2022/02/08 15:41:49;;;;;;;5.83;3.65;;;;;;;2.36;60.27;99563.12;1771708;81;21050;-79
2022/02/08 15:44:20;;;;;;;5.65;4.40;;;;;;;2.37;60.15;99562.11;1767944;81;21082;-79
2022/02/08 15:46:46;;;;;;;6.20;4.33;;;;;;;2.37;60.29;99562.92;1763979;79;20951;-78
2022/02/08 15:49:15;;;;;;;6.25;4.10;;;;;;;2.37;60.31;99570.88;1740859;82;21050;-77
2022/02/08 15:51:47;;;;;;;6.70;3.40;;;;;;;2.36;60.50;99561.28;1799296;79;21463;-74
2022/02/08 15:54:23;;;;;;;6.20;4.17;;;;;;;2.37;60.70;99564.25;1777784;78;20959;-75
2022/02/08 16:09:58;;;;;;;4.87;2.45;;;;;;;2.35;60.83;99566.81;1771148;81;21531;-77
2022/02/08 16:20:22;;;;;;;4.37;2.95;;;;;;;2.32;60.84;99564.53;1759186;81;21033;-79
2022/02/08 16:28:27;;;;;;;8.45;3.33;;;;;;;2.31;61.08;99549.13;1734152;81;21764;-82
2022/02/08 16:50:35;;;;;;;7.85;3.67;;;;;;;2.33;61.69;99563.53;1734790;81;20939;-83
2022/02/08 16:55:41;;;;;;;7.62;4.53;;;;;;;2.35;61.80;99560.17;1771318;81;21980;-84
2022/02/08 16:58:08;;;;;;;6.05;3.75;;;;;;;2.36;61.86;99565.77;1745264;81;21058;-76
2022/02/08 17:00:26;;;;;;;9.18;4.53;;;;;;;2.34;61.83;99559.36;1725509;82;20943;-87
2022/02/08 17:02:58;;;;;;;7.92;4.33;;;;;;;2.35;61.88;99566.81;1689814;82;21040;-82
2022/02/08 17:05:23;;;;;;;8.03;4.83;;;;;;;2.34;61.96;99565.99;1690902;82;20955;-86
2022/02/08 17:07:52;;;;;;;9.80;5.55;;;;;;;2.35;62.06;99568.93;1713835;82;21524;-80
2022/02/08 17:10:31;;;;;;;9.05;5.20;;;;;;;2.38;62.12;99568.55;1770704;81;20995;-83
2022/02/08 17:12:58;;;;;;;6.50;4.37;;;;;;;2.39;62.13;99563.55;1769611;80;21590;-86
2022/02/08 17:18:31;;;;;;;4.50;3.77;;;;;;;2.43;61.99;99567.44;1766215;81;21512;-83
2022/02/08 17:47:49;;;;;;;5.12;4.05;;;;;;;2.40;62.42;99573.13;1741899;81;21178;-95
2022/02/08 17:50:18;;;;;;;8.05;4.30;;;;;;;2.38;62.43;99573.86;1741408;82;20990;-88
2022/02/08 17:52:47;;;;;;;5.28;3.60;;;;;;;2.36;62.47;99569.24;1736437;81;20983;-82
2022/02/08 17:55:25;;;;;;;7.47;4.42;;;;;;;2.35;62.49;99576.89;1740852;82;21030;-88
2022/02/08 17:58:00;;;;;;;6.22;5.37;;;;;;;2.35;62.50;99572.91;1737061;82;21515;-88
2022/02/08 18:00:32;;;;;;;5.42;3.42;;;;;;;2.36;62.57;99581.69;1732108;81;21470;-91
2022/02/08 18:03:02;;;;;;;5.58;4.33;;;;;;;2.35;62.57;99572.91;1743124;81;20986;-86
2022/02/08 18:05:34;;;;;;;5.03;3.40;;;;;;;2.33;62.68;99571.48;1767432;81;21466;-83
2022/02/08 18:08:08;;;;;;;4.03;2.77;;;;;;;2.31;62.85;99565.05;1788680;78;21471;-77
2022/02/08 18:10:37;;;;;;;3.15;2.58;;;;;;;2.33;62.92;99571.48;1788513;80;21151;-78
2022/02/08 18:13:13;;;;;;;10.00;3.47;;;;;;;2.33;62.89;99566.18;1728632;81;21729;-92
2022/02/08 18:15:41;;;;;;;4.85;3.72;;;;;;;2.35;63.04;99566.27;1741419;81;21578;-82
2022/02/08 18:18:35;;;;;;;5.50;4.42;;;;;;;2.35;63.04;99559.64;1723588;81;21662;-82
2022/02/08 18:20:47;;;;;;;5.85;3.05;;;;;;;2.36;63.09;99555.16;1779351;80;20987;-82
2022/02/08 18:28:41;;;;;;;5.30;3.50;;;;;;;2.39;63.27;99559.58;1744722;81;21026;-83
2022/02/08 19:09:45;;;;;;;17.02;8.73;;;;;;;2.53;64.92;99531.22;1740709;82;21582;-84
2022/02/08 19:12:12;;;;;;;9.35;6.97;;;;;;;2.54;64.96;99524.91;1737189;81;21062;-82
2022/02/08 19:20:31;;;;;;;12.18;7.22;;;;;;;2.59;65.01;99519.80;1724694;83;21147;-83
2022/02/08 19:22:55;;;;;;;19.73;8.40;;;;;;;2.60;64.96;99516.92;1724199;81;21043;-85
2022/02/08 19:25:22;;;;;;;9.48;6.22;;;;;;;2.59;65.01;99507.32;1681388;83;20924;-84
2022/02/08 19:27:55;;;;;;;15.38;9.70;;;;;;;2.59;65.04;99489.28;1703497;83;20979;-84